Terminal Aerodrome Forecast
Issued by NWS

Home | Current Version | Previous Version | Graphics & Text | Print | Product List | Glossary On
Versions: 1 2 3 4 5 6 7 8 9 10 11 12 13 14 15 16
342
FTUS43 KICT 161623 AAA
TAFRSL
TAF AMD
KRSL 161623Z 1616/1712 33012KT P6SM SCT015 BKN040
      TEMPO 1616/1618 BKN012
     FM161800 32010KT P6SM SCT060 SCT100
     FM162200 33012KT P6SM SCT110=

USA.gov is the U.S. government's official web portal to all federal, state and local government web resources and services.